Time;durP1;ratioP1;P1;durP2;ratioP2;P2;SDS_P1;SDS_P2;PMS_P1;PMS_P2;Temp;Humidity;BMP_temperature;BMP_pressure;BME280_temperature;BME280_humidity;BME280_pressure;Samples;Min_cycle;Max_cycle;Signal;HPM_P1;HPM_P2
2022/06/08 00:00:20;;;;;;;15.20;6.30;;;;;;;;;;5072027;28;20049;-69
2022/06/08 00:02:49;;;;;;;16.85;6.85;;;;;;;;;;5075448;28;20510;-69
2022/06/08 00:05:17;;;;;;;13.13;6.78;;;;;;;;;;5071996;28;20118;-69
2022/06/08 00:07:44;;;;;;;12.95;6.25;;;;;;;;;;5071164;28;20116;-69
2022/06/08 00:10:11;;;;;;;15.18;7.13;;;;;;;;;;5075413;28;20493;-69
2022/06/08 00:12:40;;;;;;;13.40;6.90;;;;;;;;;;5071253;28;20060;-69
2022/06/08 00:15:08;;;;;;;11.57;6.32;;;;;;;;;;5073619;28;20056;-69
2022/06/08 00:17:35;;;;;;;12.05;6.43;;;;;;;;;;5073632;28;20109;-69
2022/06/08 00:20:03;;;;;;;12.15;6.30;;;;;;;;;;5068897;28;20569;-69
2022/06/08 00:22:30;;;;;;;14.70;5.60;;;;;;;;;;5076741;28;20113;-69
2022/06/08 00:24:57;;;;;;;11.48;5.88;;;;;;;;;;5075317;28;20052;-69
2022/06/08 00:27:24;;;;;;;17.92;5.88;;;;;;;;;;5072383;28;20044;-69
2022/06/08 00:29:53;;;;;;;8.82;5.07;;;;;;;;;;5069842;28;20752;-69
2022/06/08 00:32:20;;;;;;;9.98;5.10;;;;;;;;;;5066728;28;20503;-69
2022/06/08 00:34:47;;;;;;;12.95;5.47;;;;;;;;;;5071922;28;20117;-69
2022/06/08 00:37:15;;;;;;;11.10;5.85;;;;;;;;;;5071834;28;20048;-69
2022/06/08 00:39:42;;;;;;;10.48;5.85;;;;;;;;;;5077067;28;20104;-69
2022/06/08 00:42:10;;;;;;;8.80;6.07;;;;;;;;;;5077336;28;20052;-69
2022/06/08 00:44:40;;;;;;;12.15;5.93;;;;;;;;;;5073174;28;20049;-69
2022/06/08 00:47:10;;;;;;;10.15;6.65;;;;;;;;;;5077104;28;20060;-69
2022/06/08 00:49:40;;;;;;;10.90;6.07;;;;;;;;;;5076906;28;20113;-69
2022/06/08 00:52:08;;;;;;;11.02;6.53;;;;;;;;;;5077443;28;20047;-69
2022/06/08 00:54:36;;;;;;;10.25;5.97;;;;;;;;;;5081405;28;20055;-69
2022/06/08 00:57:06;;;;;;;8.93;6.35;;;;;;;;;;5071611;28;20040;-69
2022/06/08 00:59:35;;;;;;;15.57;6.65;;;;;;;;;;5073752;28;21492;-69
2022/06/08 01:02:02;;;;;;;9.68;6.47;;;;;;;;;;5074545;28;20529;-70
2022/06/08 01:04:31;;;;;;;10.65;6.60;;;;;;;;;;5071027;28;20052;-70
2022/06/08 01:07:00;;;;;;;10.82;6.97;;;;;;;;;;5070826;28;20044;-70
2022/06/08 01:09:29;;;;;;;11.35;6.70;;;;;;;;;;5076451;28;20060;-70
2022/06/08 01:11:58;;;;;;;11.63;6.68;;;;;;;;;;5067428;28;20193;-70
2022/06/08 01:14:26;;;;;;;14.30;7.47;;;;;;;;;;5069988;28;20074;-71
2022/06/08 01:16:55;;;;;;;14.02;6.65;;;;;;;;;;5073693;28;20052;-70
2022/06/08 01:19:22;;;;;;;18.33;7.15;;;;;;;;;;5074268;28;20102;-70
2022/06/08 01:21:52;;;;;;;13.48;7.80;;;;;;;;;;5069713;28;20094;-70
2022/06/08 01:24:19;;;;;;;13.57;8.10;;;;;;;;;;5070956;28;20048;-70
2022/06/08 01:26:52;;;;;;;15.07;8.25;;;;;;;;;;5074185;28;20040;-70
2022/06/08 01:29:23;;;;;;;17.23;10.38;;;;;;;;;;5069979;28;20059;-70
2022/06/08 01:31:59;;;;;;;20.98;10.82;;;;;;;;;;5074850;28;20487;-70
2022/06/08 01:34:30;;;;;;;17.00;10.85;;;;;;;;;;5073178;28;20739;-70
2022/06/08 01:37:07;;;;;;;22.02;10.07;;;;;;;;;;5077664;28;20047;-70
2022/06/08 01:39:39;;;;;;;15.93;9.73;;;;;;;;;;5070158;28;20106;-70
2022/06/08 01:42:12;;;;;;;16.60;9.45;;;;;;;;;;5069521;28;20057;-70
2022/06/08 01:45:28;;;;;;;15.40;9.55;;;;;;;;;;5070473;28;20460;-70
2022/06/08 01:47:35;;;;;;;22.17;10.57;;;;;;;;;;5073966;28;20052;-70
2022/06/08 01:50:07;;;;;;;16.80;10.32;;;;;;;;;;5072163;28;20069;-70
2022/06/08 01:52:40;;;;;;;16.23;10.05;;;;;;;;;;5072312;28;20502;-70
2022/06/08 01:55:10;;;;;;;17.30;10.45;;;;;;;;;;5072962;28;20052;-70
2022/06/08 01:57:45;;;;;;;17.35;9.35;;;;;;;;;;5074894;28;20071;-70
2022/06/08 02:00:14;;;;;;;13.38;9.38;;;;;;;;;;5065272;28;20055;-70
2022/06/08 02:02:49;;;;;;;18.10;10.98;;;;;;;;;;5067826;28;20044;-70
2022/06/08 02:05:19;;;;;;;18.13;11.50;;;;;;;;;;5070115;28;20056;-70
2022/06/08 02:07:50;;;;;;;17.75;10.85;;;;;;;;;;5078248;28;20044;-70
2022/06/08 02:10:23;;;;;;;21.77;12.27;;;;;;;;;;5078584;28;20113;-70
2022/06/08 02:12:51;;;;;;;18.75;10.77;;;;;;;;;;5068439;28;20155;-70
2022/06/08 02:15:20;;;;;;;16.10;11.15;;;;;;;;;;5074604;28;20060;-70
2022/06/08 02:17:49;;;;;;;20.45;11.63;;;;;;;;;;5075320;28;20120;-70
2022/06/08 02:20:19;;;;;;;22.58;12.27;;;;;;;;;;5076269;28;20861;-70
2022/06/08 02:22:50;;;;;;;24.85;13.00;;;;;;;;;;5072069;28;20055;-70
2022/06/08 02:25:19;;;;;;;25.05;14.25;;;;;;;;;;5073946;28;20051;-70
2022/06/08 02:27:48;;;;;;;25.77;14.38;;;;;;;;;;5074442;28;20048;-70
2022/06/08 02:30:17;;;;;;;20.83;13.48;;;;;;;;;;5071623;28;20121;-70
2022/06/08 02:35:35;;;;;;;25.35;15.43;;;;;;;;;;5075291;28;20150;-70
2022/06/08 02:38:06;;;;;;;23.02;14.00;;;;;;;;;;5069276;28;20089;-70
2022/06/08 02:40:34;;;;;;;22.38;14.20;;;;;;;;;;5072184;28;20067;-70
2022/06/08 02:43:03;;;;;;;21.95;14.00;;;;;;;;;;5072389;28;20125;-70
2022/06/08 02:45:33;;;;;;;24.88;14.75;;;;;;;;;;5066886;28;20056;-70
2022/06/08 02:48:02;;;;;;;21.40;13.82;;;;;;;;;;5073201;28;20048;-70
2022/06/08 02:50:31;;;;;;;24.83;14.80;;;;;;;;;;5067854;28;20110;-70
2022/06/08 02:53:30;;;;;;;25.02;14.77;;;;;;;;;;5070139;28;20584;-70
2022/06/08 02:56:01;;;;;;;26.10;15.48;;;;;;;;;;5073104;28;20044;-70
2022/06/08 02:58:30;;;;;;;20.63;14.25;;;;;;;;;;5070429;28;20055;-70
2022/06/08 03:01:01;;;;;;;21.70;13.27;;;;;;;;;;5070326;28;20067;-70
2022/06/08 03:03:31;;;;;;;22.30;14.18;;;;;;;;;;5072629;28;20088;-70
2022/06/08 03:06:02;;;;;;;22.42;14.82;;;;;;;;;;5077554;28;20565;-70
2022/06/08 03:08:33;;;;;;;22.42;15.35;;;;;;;;;;5072076;28;20066;-70
2022/06/08 03:11:02;;;;;;;24.00;16.10;;;;;;;;;;5072681;28;20056;-70
2022/06/08 03:13:30;;;;;;;28.50;16.92;;;;;;;;;;5073559;28;20217;-70
2022/06/08 03:15:58;;;;;;;27.45;17.27;;;;;;;;;;5068834;28;20071;-70
2022/06/08 03:18:25;;;;;;;26.60;16.67;;;;;;;;;;5071959;28;20051;-70
2022/06/08 03:20:53;;;;;;;23.85;15.52;;;;;;;;;;5071803;28;20106;-70
2022/06/08 03:23:21;;;;;;;24.73;16.02;;;;;;;;;;5071654;28;20125;-70
2022/06/08 03:25:49;;;;;;;24.92;15.18;;;;;;;;;;5075390;28;20894;-70
2022/06/08 03:28:17;;;;;;;27.52;16.15;;;;;;;;;;5071731;28;20060;-70
2022/06/08 03:30:45;;;;;;;25.00;15.68;;;;;;;;;;5071098;28;20048;-70
2022/06/08 03:33:12;;;;;;;23.58;14.75;;;;;;;;;;5075269;28;20098;-70
2022/06/08 03:35:39;;;;;;;20.05;12.65;;;;;;;;;;5077250;28;20059;-70
2022/06/08 03:38:07;;;;;;;22.90;14.63;;;;;;;;;;5071224;28;20055;-70
2022/06/08 03:40:35;;;;;;;24.67;15.05;;;;;;;;;;5076561;28;20052;-70
2022/06/08 03:43:04;;;;;;;19.45;12.50;;;;;;;;;;5078536;28;20059;-70
2022/06/08 03:45:34;;;;;;;22.55;13.60;;;;;;;;;;5073794;28;20056;-70
2022/06/08 03:48:01;;;;;;;19.23;13.43;;;;;;;;;;5073223;28;20056;-70
2022/06/08 03:50:30;;;;;;;24.80;15.15;;;;;;;;;;5079106;28;20058;-70
2022/06/08 03:52:58;;;;;;;17.15;13.27;;;;;;;;;;5074875;28;20055;-70
2022/06/08 03:55:27;;;;;;;21.50;13.85;;;;;;;;;;5075315;28;20051;-70
2022/06/08 03:57:54;;;;;;;21.73;14.20;;;;;;;;;;5077796;28;20044;-70
2022/06/08 04:00:24;;;;;;;19.40;13.68;;;;;;;;;;5070804;28;20067;-70
2022/06/08 04:02:52;;;;;;;24.73;15.77;;;;;;;;;;5075417;28;20055;-70
2022/06/08 04:05:19;;;;;;;22.38;14.93;;;;;;;;;;5066789;28;20053;-70
2022/06/08 04:07:46;;;;;;;20.80;14.23;;;;;;;;;;5071328;28;20041;-70
2022/06/08 04:10:14;;;;;;;19.83;14.05;;;;;;;;;;5077485;28;20060;-70
2022/06/08 04:12:41;;;;;;;21.23;14.55;;;;;;;;;;5070706;28;20056;-70
2022/06/08 04:15:09;;;;;;;19.80;14.70;;;;;;;;;;5077664;28;20049;-70
2022/06/08 04:17:37;;;;;;;23.33;14.25;;;;;;;;;;5072704;28;20048;-70
2022/06/08 04:20:05;;;;;;;20.65;13.95;;;;;;;;;;5076902;28;20045;-70
2022/06/08 04:22:32;;;;;;;21.75;14.82;;;;;;;;;;5074696;28;20060;-70
2022/06/08 04:24:59;;;;;;;24.00;14.18;;;;;;;;;;5077097;28;20073;-70
2022/06/08 04:27:27;;;;;;;19.90;13.88;;;;;;;;;;5073801;28;20454;-70
2022/06/08 04:29:54;;;;;;;22.52;13.95;;;;;;;;;;5077496;28;20048;-70
2022/06/08 04:32:22;;;;;;;21.05;14.38;;;;;;;;;;5072428;28;20044;-70
2022/06/08 04:34:50;;;;;;;20.05;13.45;;;;;;;;;;5078327;28;20048;-70
2022/06/08 04:37:18;;;;;;;19.20;13.55;;;;;;;;;;5075564;28;20494;-70
2022/06/08 04:39:45;;;;;;;20.70;14.40;;;;;;;;;;5071326;28;20055;-70
2022/06/08 04:42:12;;;;;;;21.02;14.45;;;;;;;;;;5071726;28;20714;-70
2022/06/08 04:44:39;;;;;;;20.10;14.43;;;;;;;;;;5073347;28;20492;-70
2022/06/08 04:47:08;;;;;;;25.77;15.40;;;;;;;;;;5073196;28;20137;-70
2022/06/08 04:49:36;;;;;;;24.98;15.73;;;;;;;;;;5079845;28;20048;-70
2022/06/08 04:52:05;;;;;;;28.10;15.30;;;;;;;;;;5070951;28;20076;-70
2022/06/08 04:54:33;;;;;;;25.65;15.52;;;;;;;;;;5077750;28;20080;-70
2022/06/08 04:57:00;;;;;;;26.00;16.40;;;;;;;;;;5072509;28;20137;-70
2022/06/08 04:59:27;;;;;;;27.08;16.15;;;;;;;;;;5073141;28;20052;-70
2022/06/08 05:01:55;;;;;;;22.65;16.55;;;;;;;;;;5072303;28;20147;-70
2022/06/08 05:04:22;;;;;;;26.33;16.73;;;;;;;;;;5076307;28;20048;-70
2022/06/08 05:06:49;;;;;;;28.35;17.80;;;;;;;;;;5077369;28;20052;-70
2022/06/08 05:09:18;;;;;;;27.85;18.08;;;;;;;;;;5072373;28;20064;-70
2022/06/08 05:11:45;;;;;;;26.30;18.80;;;;;;;;;;5078769;28;20561;-70
2022/06/08 05:14:13;;;;;;;28.42;19.02;;;;;;;;;;5071110;28;20060;-70
2022/06/08 05:16:40;;;;;;;26.25;17.70;;;;;;;;;;5073228;28;20080;-70
2022/06/08 05:19:07;;;;;;;31.15;18.63;;;;;;;;;;5073914;28;20055;-70
2022/06/08 05:21:34;;;;;;;27.58;17.98;;;;;;;;;;5074849;28;20093;-70
2022/06/08 05:24:02;;;;;;;29.88;19.35;;;;;;;;;;5077022;28;20055;-70
2022/06/08 05:26:30;;;;;;;33.40;18.90;;;;;;;;;;5085013;28;20056;-70
2022/06/08 05:28:57;;;;;;;28.15;19.63;;;;;;;;;;5078541;28;20641;-70
2022/06/08 05:31:25;;;;;;;29.45;19.55;;;;;;;;;;5072290;28;20124;-70
2022/06/08 05:33:52;;;;;;;31.52;19.20;;;;;;;;;;5079268;28;20052;-70
2022/06/08 05:36:19;;;;;;;31.83;19.77;;;;;;;;;;5077977;28;20582;-70
2022/06/08 05:38:46;;;;;;;31.73;19.52;;;;;;;;;;5073084;28;20050;-70
2022/06/08 05:41:15;;;;;;;31.73;19.95;;;;;;;;;;5079831;28;20053;-70
2022/06/08 05:43:43;;;;;;;31.70;20.33;;;;;;;;;;5075869;28;20051;-70
2022/06/08 05:46:10;;;;;;;30.95;19.65;;;;;;;;;;5074147;28;20444;-70
2022/06/08 05:48:38;;;;;;;32.58;20.15;;;;;;;;;;5071080;28;20046;-70
2022/06/08 05:51:05;;;;;;;30.90;19.40;;;;;;;;;;5073271;28;20055;-70
2022/06/08 05:53:33;;;;;;;30.58;18.27;;;;;;;;;;5073575;28;20060;-70
2022/06/08 05:56:00;;;;;;;33.90;19.95;;;;;;;;;;5073180;28;20055;-70
2022/06/08 05:58:28;;;;;;;35.78;18.60;;;;;;;;;;5083063;28;20055;-70
2022/06/08 06:00:56;;;;;;;29.33;18.58;;;;;;;;;;5080781;28;20518;-70
2022/06/08 06:03:24;;;;;;;25.05;17.73;;;;;;;;;;5081594;28;20093;-70
2022/06/08 06:05:51;;;;;;;26.63;17.13;;;;;;;;;;5077586;28;20114;-70
2022/06/08 06:08:18;;;;;;;31.58;17.30;;;;;;;;;;5077164;28;20387;-70
2022/06/08 06:10:47;;;;;;;25.70;16.45;;;;;;;;;;5073840;28;20097;-70
2022/06/08 06:13:14;;;;;;;25.70;16.52;;;;;;;;;;5071731;28;20060;-70
2022/06/08 06:15:42;;;;;;;23.48;16.17;;;;;;;;;;5078709;28;20058;-70
2022/06/08 06:18:10;;;;;;;28.23;17.10;;;;;;;;;;5080120;28;20528;-70
2022/06/08 06:20:37;;;;;;;30.10;17.33;;;;;;;;;;5075309;28;20456;-70
2022/06/08 06:23:05;;;;;;;22.05;16.30;;;;;;;;;;5076644;28;20049;-70
2022/06/08 06:25:32;;;;;;;32.17;17.33;;;;;;;;;;5076731;28;20560;-70
2022/06/08 06:27:59;;;;;;;25.95;15.38;;;;;;;;;;5069982;28;20051;-70
2022/06/08 06:30:27;;;;;;;25.23;15.13;;;;;;;;;;5078382;28;20052;-70
2022/06/08 06:32:54;;;;;;;24.88;15.40;;;;;;;;;;5066506;28;20095;-70
2022/06/08 06:35:25;;;;;;;23.92;15.18;;;;;;;;;;5075297;28;20117;-70
2022/06/08 06:37:52;;;;;;;21.52;14.65;;;;;;;;;;5072395;28;20907;-70
2022/06/08 06:40:20;;;;;;;20.42;13.70;;;;;;;;;;5071257;28;20064;-70
2022/06/08 06:42:47;;;;;;;20.75;13.57;;;;;;;;;;5070927;28;20052;-70
2022/06/08 06:45:15;;;;;;;21.25;13.20;;;;;;;;;;5074302;28;20047;-70
2022/06/08 06:47:42;;;;;;;23.90;13.68;;;;;;;;;;5070024;28;20109;-70
2022/06/08 06:50:10;;;;;;;21.95;14.35;;;;;;;;;;5067197;28;20060;-70
2022/06/08 06:52:39;;;;;;;19.88;12.70;;;;;;;;;;5074102;28;20097;-70
2022/06/08 06:55:06;;;;;;;18.50;12.45;;;;;;;;;;5067622;28;20452;-70
2022/06/08 06:57:33;;;;;;;22.33;13.43;;;;;;;;;;5070911;28;20090;-70
2022/06/08 07:00:00;;;;;;;19.45;12.90;;;;;;;;;;5068412;28;20060;-70
2022/06/08 07:02:28;;;;;;;19.23;12.18;;;;;;;;;;5072522;28;20118;-70
2022/06/08 07:04:55;;;;;;;18.27;12.07;;;;;;;;;;5073805;28;20514;-70
2022/06/08 07:07:22;;;;;;;15.55;11.45;;;;;;;;;;5071143;28;20445;-70
2022/06/08 07:09:51;;;;;;;19.00;12.38;;;;;;;;;;5075360;28;20059;-70
2022/06/08 07:12:18;;;;;;;17.30;12.10;;;;;;;;;;5071142;28;20055;-70
2022/06/08 07:14:45;;;;;;;19.58;12.88;;;;;;;;;;5071397;28;20058;-70
2022/06/08 07:17:12;;;;;;;16.95;12.57;;;;;;;;;;5072048;28;20495;-70
2022/06/08 07:19:41;;;;;;;19.48;12.73;;;;;;;;;;5068964;28;20064;-70
2022/06/08 07:22:10;;;;;;;17.20;12.40;;;;;;;;;;5071220;28;20615;-70
2022/06/08 07:24:38;;;;;;;17.80;12.57;;;;;;;;;;5071176;28;20067;-70
2022/06/08 07:27:06;;;;;;;17.65;12.13;;;;;;;;;;5071029;28;20064;-70
2022/06/08 07:29:34;;;;;;;17.38;12.68;;;;;;;;;;5071671;28;20044;-70
2022/06/08 07:32:01;;;;;;;19.83;12.65;;;;;;;;;;5071344;28;20044;-70
2022/06/08 07:34:29;;;;;;;20.40;12.75;;;;;;;;;;5075773;28;20079;-70
2022/06/08 07:36:56;;;;;;;17.08;11.35;;;;;;;;;;5071279;28;20114;-70
2022/06/08 07:39:24;;;;;;;16.13;10.98;;;;;;;;;;5069644;28;20101;-70
2022/06/08 07:41:51;;;;;;;20.23;11.98;;;;;;;;;;5071394;28;20056;-70
2022/06/08 07:44:20;;;;;;;18.17;12.43;;;;;;;;;;5074060;28;20052;-70
2022/06/08 07:46:48;;;;;;;16.75;11.02;;;;;;;;;;5075994;28;20849;-70
2022/06/08 07:52:01;;;;;;;20.20;12.57;;;;;;;;;;5072871;28;20133;-70
2022/06/08 07:54:30;;;;;;;16.30;11.70;;;;;;;;;;5074555;28;20060;-70
2022/06/08 07:56:58;;;;;;;21.33;12.00;;;;;;;;;;5069075;28;20044;-70
2022/06/08 07:59:28;;;;;;;15.93;12.10;;;;;;;;;;5070000;28;20049;-70
2022/06/08 08:01:55;;;;;;;16.13;10.38;;;;;;;;;;5074416;28;20049;-70
2022/06/08 08:04:23;;;;;;;15.93;11.15;;;;;;;;;;5077264;28;20445;-71
2022/06/08 08:06:50;;;;;;;19.08;11.27;;;;;;;;;;5076542;28;20059;-71
2022/06/08 08:09:18;;;;;;;14.80;9.75;;;;;;;;;;5072090;28;20055;-70
2022/06/08 08:11:46;;;;;;;13.65;9.32;;;;;;;;;;5079060;28;20137;-70
2022/06/08 08:14:13;;;;;;;15.82;8.77;;;;;;;;;;5070408;28;20053;-70
2022/06/08 08:16:43;;;;;;;10.40;7.03;;;;;;;;;;5083156;28;20176;-70
2022/06/08 08:19:10;;;;;;;11.00;6.70;;;;;;;;;;5074147;28;20425;-70
2022/06/08 08:21:38;;;;;;;7.28;4.28;;;;;;;;;;5076722;28;20057;-70
2022/06/08 08:24:05;;;;;;;9.23;4.07;;;;;;;;;;5072573;28;20108;-70
2022/06/08 08:26:32;;;;;;;7.13;4.00;;;;;;;;;;5077254;28;20098;-70
2022/06/08 08:29:00;;;;;;;7.63;4.55;;;;;;;;;;5074386;28;20040;-70
2022/06/08 08:31:27;;;;;;;8.95;4.80;;;;;;;;;;5077360;28;20056;-70
2022/06/08 08:33:56;;;;;;;7.25;3.85;;;;;;;;;;5073448;28;20044;-70
2022/06/08 08:36:23;;;;;;;7.03;4.03;;;;;;;;;;5073084;28;20057;-70
2022/06/08 08:38:51;;;;;;;8.35;4.70;;;;;;;;;;5077371;28;20098;-70
2022/06/08 08:44:07;;;;;;;7.07;4.03;;;;;;;;;;5071997;28;20776;-71
2022/06/08 08:46:40;;;;;;;7.32;3.70;;;;;;;;;;5074443;28;20045;-70
2022/06/08 08:49:14;;;;;;;10.18;3.72;;;;;;;;;;5071783;28;20051;-70
2022/06/08 08:51:42;;;;;;;7.50;3.90;;;;;;;;;;5075784;28;20055;-71
2022/06/08 08:54:17;;;;;;;6.40;4.03;;;;;;;;;;5068291;28;20078;-70
2022/06/08 08:56:45;;;;;;;8.40;3.72;;;;;;;;;;5073957;28;20056;-70
2022/06/08 08:59:13;;;;;;;6.75;3.80;;;;;;;;;;5074848;28;20048;-70
2022/06/08 09:01:42;;;;;;;6.68;3.33;;;;;;;;;;5071137;28;20057;-71
2022/06/08 09:04:16;;;;;;;5.68;3.10;;;;;;;;;;5066882;28;20320;-70
2022/06/08 09:06:43;;;;;;;7.72;3.30;;;;;;;;;;5076881;28;20055;-70
2022/06/08 09:09:14;;;;;;;6.00;3.45;;;;;;;;;;5069178;28;20045;-70
2022/06/08 09:11:43;;;;;;;5.82;3.53;;;;;;;;;;5079876;28;20052;-70
2022/06/08 09:14:13;;;;;;;7.88;3.65;;;;;;;;;;5068991;28;20056;-70
2022/06/08 09:16:42;;;;;;;10.85;3.70;;;;;;;;;;5073924;28;20057;-70
2022/06/08 09:19:31;;;;;;;7.95;4.20;;;;;;;;;;5070383;28;20045;-70
2022/06/08 09:22:14;;;;;;;6.93;3.75;;;;;;;;;;5076352;28;20041;-70
2022/06/08 09:24:43;;;;;;;10.43;3.97;;;;;;;;;;5070753;28;20113;-70
2022/06/08 09:27:15;;;;;;;6.60;3.45;;;;;;;;;;5071811;28;20072;-70
2022/06/08 09:29:49;;;;;;;4.38;2.80;;;;;;;;;;5074274;28;20147;-70
2022/06/08 09:32:26;;;;;;;5.97;3.05;;;;;;;;;;5065443;28;20059;-70
2022/06/08 09:34:56;;;;;;;4.40;2.90;;;;;;;;;;5068865;28;20305;-70
2022/06/08 09:37:24;;;;;;;6.20;3.50;;;;;;;;;;5071360;28;20044;-70
2022/06/08 09:39:52;;;;;;;8.77;3.55;;;;;;;;;;5073837;28;20043;-70
2022/06/08 09:42:26;;;;;;;4.72;3.03;;;;;;;;;;5070106;28;20060;-70
2022/06/08 09:44:57;;;;;;;6.75;3.15;;;;;;;;;;5071633;28;20048;-70
2022/06/08 09:53:06;;;;;;;5.07;3.60;;;;;;;;;;5067817;28;20515;-70
2022/06/08 09:55:42;;;;;;;6.88;3.22;;;;;;;;;;5068897;28;20075;-70
2022/06/08 09:58:16;;;;;;;7.00;3.25;;;;;;;;;;5069723;28;20066;-70
2022/06/08 10:00:47;;;;;;;8.35;3.10;;;;;;;;;;5069265;28;20039;-70
2022/06/08 10:03:33;;;;;;;6.22;3.10;;;;;;;;;;5067174;28;20541;-71
2022/06/08 10:06:06;;;;;;;8.63;3.65;;;;;;;;;;5068231;28;20060;-71
2022/06/08 10:08:40;;;;;;;9.02;3.60;;;;;;;;;;5069517;28;20586;-71
2022/06/08 10:11:34;;;;;;;7.15;3.35;;;;;;;;;;5064697;28;20048;-71
2022/06/08 10:14:01;;;;;;;6.30;3.35;;;;;;;;;;5073409;28;20147;-71
2022/06/08 10:16:31;;;;;;;9.48;4.00;;;;;;;;;;5070317;28;20392;-71
2022/06/08 10:19:01;;;;;;;6.82;3.65;;;;;;;;;;5069537;28;20044;-71
2022/06/08 10:21:33;;;;;;;5.13;3.80;;;;;;;;;;5069160;28;20048;-71
2022/06/08 10:24:03;;;;;;;5.85;4.20;;;;;;;;;;5066164;28;20052;-70
2022/06/08 10:26:34;;;;;;;5.90;4.10;;;;;;;;;;5070807;28;20060;-70
2022/06/08 10:29:05;;;;;;;8.43;4.13;;;;;;;;;;5065071;28;20044;-70
2022/06/08 10:31:32;;;;;;;7.50;4.10;;;;;;;;;;5069864;28;20052;-70
2022/06/08 10:34:03;;;;;;;9.77;4.57;;;;;;;;;;5071476;28;20061;-70
2022/06/08 10:36:32;;;;;;;8.10;4.90;;;;;;;;;;5068191;28;20506;-70
2022/06/08 10:39:01;;;;;;;6.95;4.55;;;;;;;;;;5072422;28;20071;-70
2022/06/08 10:44:33;;;;;;;5.75;3.80;;;;;;;;;;5071955;28;20178;-71
2022/06/08 10:47:09;;;;;;;7.50;4.55;;;;;;;;;;5070224;28;20140;-71
2022/06/08 10:49:49;;;;;;;8.30;4.50;;;;;;;;;;5070167;28;20874;-71
2022/06/08 10:52:26;;;;;;;7.82;4.82;;;;;;;;;;5061749;28;20048;-71
2022/06/08 10:54:53;;;;;;;7.18;5.00;;;;;;;;;;5067449;28;20036;-71
2022/06/08 10:57:38;;;;;;;8.88;5.30;;;;;;;;;;5071619;28;20048;-71
2022/06/08 11:00:23;;;;;;;8.27;5.60;;;;;;;;;;5062232;28;20520;-71
2022/06/08 11:02:52;;;;;;;10.05;4.63;;;;;;;;;;5072559;28;20149;-71
2022/06/08 11:05:20;;;;;;;10.10;5.47;;;;;;;;;;5071114;28;20134;-71
2022/06/08 11:08:06;;;;;;;7.78;5.65;;;;;;;;;;5070248;28;20647;-71
2022/06/08 11:10:50;;;;;;;6.70;4.70;;;;;;;;;;5068615;28;20503;-71
2022/06/08 11:13:25;;;;;;;6.80;4.40;;;;;;;;;;5071925;28;20052;-71
2022/06/08 11:15:56;;;;;;;7.75;4.40;;;;;;;;;;5064413;28;20054;-71
2022/06/08 11:18:27;;;;;;;5.72;4.57;;;;;;;;;;5064701;28;20141;-71
2022/06/08 11:20:58;;;;;;;9.27;4.68;;;;;;;;;;5061609;28;20094;-71
2022/06/08 11:23:31;;;;;;;7.30;4.25;;;;;;;;;;5072096;28;20047;-71
2022/06/08 11:26:14;;;;;;;8.38;4.50;;;;;;;;;;5069933;28;20428;-71
2022/06/08 11:28:44;;;;;;;4.95;4.22;;;;;;;;;;5073095;28;20411;-71
2022/06/08 11:31:13;;;;;;;7.82;4.80;;;;;;;;;;5064516;28;20052;-71
2022/06/08 11:33:58;;;;;;;10.45;5.47;;;;;;;;;;5070348;28;20053;-71
2022/06/08 11:36:43;;;;;;;7.78;5.28;;;;;;;;;;5066483;28;20106;-71
2022/06/08 11:39:19;;;;;;;8.10;5.28;;;;;;;;;;5075665;28;20059;-71
2022/06/08 11:41:57;;;;;;;7.68;5.47;;;;;;;;;;5070924;28;20056;-71
2022/06/08 11:44:27;;;;;;;8.48;5.47;;;;;;;;;;5062971;28;20135;-71
2022/06/08 11:47:02;;;;;;;5.47;4.93;;;;;;;;;;5067647;28;20110;-71
2022/06/08 11:49:32;;;;;;;8.85;5.75;;;;;;;;;;5072875;28;20105;-71
2022/06/08 11:51:59;;;;;;;10.00;5.50;;;;;;;;;;5075295;28;20491;-71
2022/06/08 11:54:30;;;;;;;8.57;5.30;;;;;;;;;;5076394;28;20410;-71
2022/06/08 11:57:04;;;;;;;6.40;5.13;;;;;;;;;;5075022;28;20051;-71
2022/06/08 11:59:34;;;;;;;9.18;5.63;;;;;;;;;;5077436;28;20600;-71
2022/06/08 12:02:03;;;;;;;7.70;5.20;;;;;;;;;;5069352;28;20118;-71
2022/06/08 12:04:31;;;;;;;10.80;5.75;;;;;;;;;;5072807;28;20388;-71
2022/06/08 12:18:57;;;;;;;8.73;6.70;;;;;;;;;;4423228;26;20043;-68
2022/06/08 12:21:29;;;;;;;11.60;6.68;;;;;;;;;;4923870;29;20051;-69
2022/06/08 12:24:04;;;;;;;10.57;6.75;;;;;;;;;;4927171;29;20063;-69
2022/06/08 12:26:43;;;;;;;13.43;7.63;;;;;;;;;;4935039;28;20059;-69
2022/06/08 12:29:26;;;;;;;14.65;9.77;;;;;;;;;;4927655;29;20110;-67
2022/06/08 12:32:01;;;;;;;12.60;8.37;;;;;;;;;;4943936;28;20062;-67
2022/06/08 12:34:35;;;;;;;15.75;9.52;;;;;;;;;;4953420;28;20294;-67
2022/06/08 12:37:17;;;;;;;18.27;11.38;;;;;;;;;;4949416;28;20054;-67
2022/06/08 12:39:45;;;;;;;15.07;10.27;;;;;;;;;;4927828;28;20055;-67
2022/06/08 12:42:25;;;;;;;17.65;11.52;;;;;;;;;;4930503;29;20498;-67
2022/06/08 12:44:53;;;;;;;18.73;13.88;;;;;;;;;;4942085;28;20047;-67
2022/06/08 12:47:20;;;;;;;16.92;14.70;;;;;;;;;;4931351;29;20086;-67
2022/06/08 12:49:51;;;;;;;18.98;14.73;;;;;;;;;;4941935;28;20055;-67
2022/06/08 12:52:22;;;;;;;15.27;13.45;;;;;;;;;;4953950;28;20053;-67
2022/06/08 12:54:50;;;;;;;16.50;11.15;;;;;;;;;;4948452;28;20047;-67
2022/06/08 12:57:18;;;;;;;17.42;8.05;;;;;;;;;;4947416;28;20556;-67
2022/06/08 13:13:40;;;;;;;10.50;7.00;;;;;;;;;;3743038;23;20459;-67
2022/06/08 13:16:21;;;;;;;13.85;8.32;;;;;;;;;;4960040;23;20532;-68
2022/06/08 13:18:48;;;;;;;12.05;7.88;;;;;;;;;;4957875;28;20500;-68
2022/06/08 13:21:15;;;;;;;10.73;6.68;;;;;;;;;;4940889;28;20051;-68
2022/06/08 13:23:43;;;;;;;16.45;9.55;;;;;;;;;;4960890;28;20058;-68
2022/06/08 13:26:14;;;;;;;14.10;8.20;;;;;;;;;;4940363;28;20059;-68
2022/06/08 13:28:43;;;;;;;14.13;8.18;;;;;;;;;;4937259;28;20063;-68
2022/06/08 13:31:11;;;;;;;14.52;7.80;;;;;;;;;;4941755;28;20501;-68
2022/06/08 13:33:57;;;;;;;14.82;8.60;;;;;;;;;;4939701;28;20413;-68
2022/06/08 13:36:25;;;;;;;9.80;5.40;;;;;;;;;;4959101;28;20058;-68
2022/06/08 13:38:53;;;;;;;8.00;3.90;;;;;;;;;;4960042;28;20054;-68
2022/06/08 13:41:20;;;;;;;8.18;3.55;;;;;;;;;;4937732;28;20838;-68
2022/06/08 13:43:49;;;;;;;12.23;4.75;;;;;;;;;;4941063;28;20058;-68
2022/06/08 13:46:19;;;;;;;6.60;3.92;;;;;;;;;;4954556;28;20503;-68
2022/06/08 13:48:46;;;;;;;9.20;3.72;;;;;;;;;;4945980;28;20205;-68
2022/06/08 13:51:13;;;;;;;10.80;4.30;;;;;;;;;;4947095;28;20054;-68
2022/06/08 13:53:41;;;;;;;8.45;4.28;;;;;;;;;;4946512;28;20058;-68
2022/06/08 13:56:08;;;;;;;6.68;3.33;;;;;;;;;;4963939;28;20051;-68
2022/06/08 13:58:35;;;;;;;10.38;3.97;;;;;;;;;;4962371;28;20051;-68
2022/06/08 14:01:08;;;;;;;6.13;3.75;;;;;;;;;;4943967;28;20553;-68
2022/06/08 14:03:35;;;;;;;;;;;;;;;;;;4963444;28;20086;-68
2022/06/08 14:14:21;;;;;;;10.77;3.90;;;;;;;;;;4950591;28;20459;-68
2022/06/08 14:16:50;;;;;;;5.35;3.50;;;;;;;;;;4968608;28;20050;-68
2022/06/08 14:19:19;;;;;;;7.43;3.10;;;;;;;;;;4952761;28;20056;-68
2022/06/08 14:21:47;;;;;;;7.65;3.65;;;;;;;;;;4966161;28;20073;-68
2022/06/08 14:24:18;;;;;;;9.10;4.10;;;;;;;;;;4965086;28;20501;-68
2022/06/08 14:26:46;;;;;;;9.25;4.53;;;;;;;;;;4967386;28;20050;-68
2022/06/08 14:29:14;;;;;;;6.45;4.07;;;;;;;;;;4988245;28;20053;-68
2022/06/08 14:31:42;;;;;;;11.75;4.07;;;;;;;;;;4967433;28;20058;-68
2022/06/08 14:34:15;;;;;;;10.82;4.07;;;;;;;;;;4965760;28;20062;-68
2022/06/08 14:36:43;;;;;;;7.57;4.28;;;;;;;;;;4971275;28;20101;-68
2022/06/08 14:39:13;;;;;;;7.47;4.50;;;;;;;;;;4961590;28;20055;-68
2022/06/08 14:41:40;;;;;;;9.05;4.80;;;;;;;;;;4981144;28;20113;-68
2022/06/08 14:44:08;;;;;;;11.27;4.85;;;;;;;;;;4984850;28;20039;-68
2022/06/08 14:46:43;;;;;;;9.80;5.25;;;;;;;;;;4983074;28;20050;-68
2022/06/08 14:49:12;;;;;;;8.40;4.72;;;;;;;;;;4983019;28;20445;-68
2022/06/08 14:51:41;;;;;;;7.10;4.75;;;;;;;;;;4982788;28;20532;-68
2022/06/08 14:54:11;;;;;;;7.97;5.18;;;;;;;;;;4966364;28;20061;-68
2022/06/08 14:56:38;;;;;;;11.98;5.60;;;;;;;;;;4967289;28;20059;-68
2022/06/08 14:59:13;;;;;;;10.05;5.40;;;;;;;;;;4983105;28;20043;-68
2022/06/08 15:01:40;;;;;;;9.60;4.45;;;;;;;;;;4957685;28;20493;-68
2022/06/08 15:04:08;;;;;;;8.85;4.63;;;;;;;;;;4959765;28;20043;-68
2022/06/08 15:06:35;;;;;;;7.68;4.50;;;;;;;;;;4980832;28;21657;-68
2022/06/08 15:09:04;;;;;;;6.55;4.72;;;;;;;;;;4956688;28;20158;-68
2022/06/08 15:14:19;;;;;;;8.00;4.40;;;;;;;;;;4954975;28;20093;-68
2022/06/08 15:16:47;;;;;;;11.38;4.00;;;;;;;;;;4957213;28;20062;-68
2022/06/08 15:19:17;;;;;;;6.88;3.58;;;;;;;;;;4961604;28;20059;-68
2022/06/08 15:21:45;;;;;;;6.90;3.60;;;;;;;;;;4965091;28;20054;-68
2022/06/08 15:24:16;;;;;;;8.65;4.20;;;;;;;;;;4963416;28;20058;-68
2022/06/08 15:26:44;;;;;;;7.93;4.13;;;;;;;;;;4965380;28;20051;-68
2022/06/08 15:29:14;;;;;;;7.60;4.97;;;;;;;;;;4964381;28;20050;-68
2022/06/08 15:31:42;;;;;;;8.80;4.35;;;;;;;;;;4959936;28;20416;-68
2022/06/08 15:34:13;;;;;;;6.35;4.47;;;;;;;;;;4977710;28;20062;-68
2022/06/08 15:36:40;;;;;;;9.23;4.78;;;;;;;;;;4982771;28;20046;-68